sensor_id;sensor_type;location;lat;lon;timestamp;pressure;altitude;pressure_sealevel;temperature;humidity
38197;BME280;26543;51.976;4.616;2022-08-21T00:01:59;52524.78;;;-140.72;100.00
38197;BME280;26543;51.976;4.616;2022-08-21T00:04:25;52520.72;;;-140.72;100.00
38197;BME280;26543;51.976;4.616;2022-08-21T00:06:51;52536.97;;;-140.72;100.00
38197;BME280;26543;51.976;4.616;2022-08-21T00:09:18;52504.50;;;-140.72;100.00
38197;BME280;26543;51.976;4.616;2022-08-21T00:11:44;52545.06;;;-140.72;100.00
38197;BME280;26543;51.976;4.616;2022-08-21T00:14:10;52575.50;;;-140.72;100.00
38197;BME280;26543;51.976;4.616;2022-08-21T00:16:36;52551.16;;;-140.72;100.00
38197;BME280;26543;51.976;4.616;2022-08-21T00:19:02;52510.59;;;-140.72;100.00
38197;BME280;26543;51.976;4.616;2022-08-21T00:21:27;52567.41;;;-140.72;100.00
38197;BME280;26543;51.976;4.616;2022-08-21T00:23:53;52528.84;;;-140.72;100.00
38197;BME280;26543;51.976;4.616;2022-08-21T00:26:18;52547.09;;;-140.72;100.00
38197;BME280;26543;51.976;4.616;2022-08-21T00:28:44;52591.75;;;-140.72;100.00
38197;BME280;26543;51.976;4.616;2022-08-21T00:31:11;52583.63;;;-140.72;100.00
38197;BME280;26543;51.976;4.616;2022-08-21T00:33:36;52585.66;;;-140.72;100.00
38197;BME280;26543;51.976;4.616;2022-08-21T00:36:02;52561.31;;;-140.72;100.00
38197;BME280;26543;51.976;4.616;2022-08-21T00:38:28;52565.38;;;-140.72;100.00
38197;BME280;26543;51.976;4.616;2022-08-21T00:40:58;52536.97;;;-140.72;100.00
38197;BME280;26543;51.976;4.616;2022-08-21T00:43:27;52571.47;;;-140.72;100.00
38197;BME280;26543;51.976;4.616;2022-08-21T00:45:53;52518.69;;;-140.72;100.00
38197;BME280;26543;51.976;4.616;2022-08-21T00:48:19;52585.66;;;-140.72;100.00
38197;BME280;26543;51.976;4.616;2022-08-21T00:51:10;52553.19;;;-140.72;100.00
38197;BME280;26543;51.976;4.616;2022-08-21T00:53:39;52553.19;;;-140.72;100.00
38197;BME280;26543;51.976;4.616;2022-08-21T00:56:07;52557.25;;;-140.72;100.00
38197;BME280;26543;51.976;4.616;2022-08-21T00:58:35;52561.31;;;-140.72;100.00
38197;BME280;26543;51.976;4.616;2022-08-21T01:01:04;52567.41;;;-140.72;100.00
38197;BME280;26543;51.976;4.616;2022-08-21T01:03:32;52553.19;;;-140.72;100.00
38197;BME280;26543;51.976;4.616;2022-08-21T01:05:58;52573.50;;;-140.72;100.00
38197;BME280;26543;51.976;4.616;2022-08-21T01:08:24;52603.94;;;-140.72;100.00
38197;BME280;26543;51.976;4.616;2022-08-21T01:10:52;52553.19;;;-140.72;100.00
38197;BME280;26543;51.976;4.616;2022-08-21T01:13:19;52569.44;;;-140.72;100.00
38197;BME280;26543;51.976;4.616;2022-08-21T01:15:46;52561.31;;;-140.72;100.00
38197;BME280;26543;51.976;4.616;2022-08-21T01:18:14;52567.41;;;-140.72;100.00
38197;BME280;26543;51.976;4.616;2022-08-21T01:23:10;52553.19;;;-140.72;100.00
38197;BME280;26543;51.976;4.616;2022-08-21T01:25:36;52565.38;;;-140.72;100.00
38197;BME280;26543;51.976;4.616;2022-08-21T01:28:11;52589.72;;;-140.72;100.00
38197;BME280;26543;51.976;4.616;2022-08-21T01:30:40;52541.03;;;-140.72;100.00
38197;BME280;26543;51.976;4.616;2022-08-21T01:33:06;52571.47;;;-140.72;100.00
38197;BME280;26543;51.976;4.616;2022-08-21T01:35:32;52545.06;;;-140.72;100.00
38197;BME280;26543;51.976;4.616;2022-08-21T01:37:57;52555.22;;;-140.72;100.00
38197;BME280;26543;51.976;4.616;2022-08-21T01:40:22;52565.38;;;-140.72;100.00
38197;BME280;26543;51.976;4.616;2022-08-21T01:42:48;52563.34;;;-140.72;100.00
38197;BME280;26543;51.976;4.616;2022-08-21T01:45:14;52601.91;;;-140.72;100.00
38197;BME280;26543;51.976;4.616;2022-08-21T01:47:41;52612.03;;;-140.72;100.00
38197;BME280;26543;51.976;4.616;2022-08-21T01:50:09;52557.25;;;-140.72;100.00
38197;BME280;26543;51.976;4.616;2022-08-21T01:52:35;52577.53;;;-140.72;100.00
38197;BME280;26543;51.976;4.616;2022-08-21T01:55:00;52581.59;;;-140.72;100.00
38197;BME280;26543;51.976;4.616;2022-08-21T01:57:27;52593.78;;;-140.72;100.00
38197;BME280;26543;51.976;4.616;2022-08-21T01:59:53;52559.28;;;-140.72;100.00
38197;BME280;26543;51.976;4.616;2022-08-21T02:02:18;52581.59;;;-140.72;100.00
38197;BME280;26543;51.976;4.616;2022-08-21T02:04:44;52569.44;;;-140.72;100.00
38197;BME280;26543;51.976;4.616;2022-08-21T02:07:09;52563.34;;;-140.72;100.00
38197;BME280;26543;51.976;4.616;2022-08-21T02:09:35;52583.63;;;-140.72;100.00
38197;BME280;26543;51.976;4.616;2022-08-21T02:12:00;52589.72;;;-140.72;100.00
38197;BME280;26543;51.976;4.616;2022-08-21T02:14:25;52577.53;;;-140.72;100.00
38197;BME280;26543;51.976;4.616;2022-08-21T02:16:51;52551.16;;;-140.72;100.00
38197;BME280;26543;51.976;4.616;2022-08-21T02:19:16;52569.44;;;-140.72;100.00
38197;BME280;26543;51.976;4.616;2022-08-21T02:21:43;52532.91;;;-140.72;100.00
38197;BME280;26543;51.976;4.616;2022-08-21T02:24:09;52587.69;;;-140.72;100.00
38197;BME280;26543;51.976;4.616;2022-08-21T02:26:35;52601.91;;;-140.72;100.00
38197;BME280;26543;51.976;4.616;2022-08-21T02:29:00;52597.84;;;-140.72;100.00
38197;BME280;26543;51.976;4.616;2022-08-21T02:31:26;52563.34;;;-140.72;100.00
38197;BME280;26543;51.976;4.616;2022-08-21T02:33:52;52589.72;;;-140.72;100.00
38197;BME280;26543;51.976;4.616;2022-08-21T02:36:20;52581.59;;;-140.72;100.00
38197;BME280;26543;51.976;4.616;2022-08-21T02:38:46;52534.94;;;-140.72;100.00
38197;BME280;26543;51.976;4.616;2022-08-21T02:41:14;52569.44;;;-140.72;100.00
38197;BME280;26543;51.976;4.616;2022-08-21T02:43:40;52573.50;;;-140.72;100.00
38197;BME280;26543;51.976;4.616;2022-08-21T02:46:08;52565.38;;;-140.72;100.00
38197;BME280;26543;51.976;4.616;2022-08-21T02:48:34;52569.44;;;-140.72;100.00
38197;BME280;26543;51.976;4.616;2022-08-21T02:51:02;52603.94;;;-140.72;100.00
38197;BME280;26543;51.976;4.616;2022-08-21T02:53:29;52555.22;;;-140.72;100.00
38197;BME280;26543;51.976;4.616;2022-08-21T02:55:57;52567.41;;;-140.72;100.00
38197;BME280;26543;51.976;4.616;2022-08-21T02:58:30;52551.16;;;-140.72;100.00
38197;BME280;26543;51.976;4.616;2022-08-21T03:00:57;52573.50;;;-140.72;100.00
38197;BME280;26543;51.976;4.616;2022-08-21T03:03:24;52573.50;;;-140.72;100.00
38197;BME280;26543;51.976;4.616;2022-08-21T03:05:49;52618.13;;;-140.72;100.00
38197;BME280;26543;51.976;4.616;2022-08-21T03:08:16;52581.59;;;-140.72;100.00
38197;BME280;26543;51.976;4.616;2022-08-21T03:10:45;52587.69;;;-140.72;100.00
38197;BME280;26543;51.976;4.616;2022-08-21T03:13:12;52601.91;;;-140.72;100.00
38197;BME280;26543;51.976;4.616;2022-08-21T03:15:39;52587.69;;;-140.72;100.00
38197;BME280;26543;51.976;4.616;2022-08-21T03:18:06;52618.13;;;-140.72;100.00
38197;BME280;26543;51.976;4.616;2022-08-21T03:20:33;52581.59;;;-140.72;100.00
38197;BME280;26543;51.976;4.616;2022-08-21T03:22:59;52557.25;;;-140.72;100.00
38197;BME280;26543;51.976;4.616;2022-08-21T03:25:26;52597.84;;;-140.72;100.00
38197;BME280;26543;51.976;4.616;2022-08-21T03:27:52;52587.69;;;-140.72;100.00
38197;BME280;26543;51.976;4.616;2022-08-21T03:30:21;52581.59;;;-140.72;100.00
38197;BME280;26543;51.976;4.616;2022-08-21T03:32:48;52616.09;;;-140.72;100.00
38197;BME280;26543;51.976;4.616;2022-08-21T03:35:14;52605.94;;;-140.72;100.00
38197;BME280;26543;51.976;4.616;2022-08-21T03:37:40;52583.63;;;-140.72;100.00
38197;BME280;26543;51.976;4.616;2022-08-21T03:40:08;52573.50;;;-140.72;100.00
38197;BME280;26543;51.976;4.616;2022-08-21T03:42:33;52595.81;;;-140.72;100.00
38197;BME280;26543;51.976;4.616;2022-08-21T03:45:00;52605.94;;;-140.72;100.00
38197;BME280;26543;51.976;4.616;2022-08-21T03:47:25;52605.94;;;-140.72;100.00
38197;BME280;26543;51.976;4.616;2022-08-21T03:49:51;52605.94;;;-140.72;100.00
38197;BME280;26543;51.976;4.616;2022-08-21T03:52:16;52597.84;;;-140.72;100.00
38197;BME280;26543;51.976;4.616;2022-08-21T03:54:43;52597.84;;;-140.72;100.00
38197;BME280;26543;51.976;4.616;2022-08-21T03:57:09;52563.34;;;-140.72;100.00
38197;BME280;26543;51.976;4.616;2022-08-21T03:59:36;52589.72;;;-140.72;100.00
38197;BME280;26543;51.976;4.616;2022-08-21T04:02:04;52571.47;;;-140.72;100.00
38197;BME280;26543;51.976;4.616;2022-08-21T04:04:30;52589.72;;;-140.72;100.00
38197;BME280;26543;51.976;4.616;2022-08-21T04:06:56;52571.47;;;-140.72;100.00
38197;BME280;26543;51.976;4.616;2022-08-21T04:09:22;52587.69;;;-140.72;100.00
38197;BME280;26543;51.976;4.616;2022-08-21T04:11:48;52597.84;;;-140.72;100.00
38197;BME280;26543;51.976;4.616;2022-08-21T04:14:14;52541.03;;;-140.72;100.00
38197;BME280;26543;51.976;4.616;2022-08-21T04:16:40;52573.50;;;-140.72;100.00
38197;BME280;26543;51.976;4.616;2022-08-21T04:19:07;52557.25;;;-140.72;100.00
38197;BME280;26543;51.976;4.616;2022-08-21T04:21:33;52583.63;;;-140.72;100.00
38197;BME280;26543;51.976;4.616;2022-08-21T04:23:59;52591.75;;;-140.72;100.00
38197;BME280;26543;51.976;4.616;2022-08-21T04:26:25;52567.41;;;-140.72;100.00
38197;BME280;26543;51.976;4.616;2022-08-21T04:28:51;52565.38;;;-140.72;100.00
38197;BME280;26543;51.976;4.616;2022-08-21T04:31:17;52601.91;;;-140.72;100.00
38197;BME280;26543;51.976;4.616;2022-08-21T04:33:42;52597.84;;;-140.72;100.00
38197;BME280;26543;51.976;4.616;2022-08-21T04:36:08;52581.59;;;-140.72;100.00
38197;BME280;26543;51.976;4.616;2022-08-21T04:38:33;52587.69;;;-140.72;100.00
38197;BME280;26543;51.976;4.616;2022-08-21T04:40:59;52628.28;;;-140.72;100.00
38197;BME280;26543;51.976;4.616;2022-08-21T04:43:24;52614.06;;;-140.72;100.00
38197;BME280;26543;51.976;4.616;2022-08-21T04:45:51;52567.41;;;-140.72;100.00
38197;BME280;26543;51.976;4.616;2022-08-21T04:48:20;52616.09;;;-140.72;100.00
38197;BME280;26543;51.976;4.616;2022-08-21T04:51:07;52597.84;;;-140.72;100.00
38197;BME280;26543;51.976;4.616;2022-08-21T04:53:48;52601.91;;;-140.72;100.00
38197;BME280;26543;51.976;4.616;2022-08-21T04:56:25;52620.16;;;-140.72;100.00
38197;BME280;26543;51.976;4.616;2022-08-21T04:58:52;52603.94;;;-140.72;100.00
38197;BME280;26543;51.976;4.616;2022-08-21T05:01:22;52583.63;;;-140.72;100.00
38197;BME280;26543;51.976;4.616;2022-08-21T05:03:52;52593.78;;;-140.72;100.00
38197;BME280;26543;51.976;4.616;2022-08-21T05:06:20;52567.41;;;-140.72;100.00
38197;BME280;26543;51.976;4.616;2022-08-21T05:08:47;52573.50;;;-140.72;100.00
38197;BME280;26543;51.976;4.616;2022-08-21T05:11:13;52567.41;;;-140.72;100.00
38197;BME280;26543;51.976;4.616;2022-08-21T05:13:39;52541.03;;;-140.72;100.00
38197;BME280;26543;51.976;4.616;2022-08-21T05:16:06;52587.69;;;-140.72;100.00
38197;BME280;26543;51.976;4.616;2022-08-21T05:18:31;52599.88;;;-140.72;100.00
38197;BME280;26543;51.976;4.616;2022-08-21T05:20:57;52599.88;;;-140.72;100.00
38197;BME280;26543;51.976;4.616;2022-08-21T05:23:22;52561.31;;;-140.72;100.00
38197;BME280;26543;51.976;4.616;2022-08-21T05:25:48;52585.66;;;-140.72;100.00
38197;BME280;26543;51.976;4.616;2022-08-21T05:28:14;52577.53;;;-140.72;100.00
38197;BME280;26543;51.976;4.616;2022-08-21T05:30:39;52563.34;;;-140.72;100.00
38197;BME280;26543;51.976;4.616;2022-08-21T05:33:06;52567.41;;;-140.72;100.00
38197;BME280;26543;51.976;4.616;2022-08-21T05:35:32;52577.53;;;-140.72;100.00
38197;BME280;26543;51.976;4.616;2022-08-21T05:37:58;52573.50;;;-140.72;100.00
38197;BME280;26543;51.976;4.616;2022-08-21T05:40:26;52530.88;;;-140.72;100.00
38197;BME280;26543;51.976;4.616;2022-08-21T05:42:54;52536.97;;;-140.72;100.00
38197;BME280;26543;51.976;4.616;2022-08-21T05:45:21;52577.53;;;-140.72;100.00
38197;BME280;26543;51.976;4.616;2022-08-21T05:47:46;52567.41;;;-140.72;100.00
38197;BME280;26543;51.976;4.616;2022-08-21T05:50:12;52569.44;;;-140.72;100.00
38197;BME280;26543;51.976;4.616;2022-08-21T05:52:38;52597.84;;;-140.72;100.00
38197;BME280;26543;51.976;4.616;2022-08-21T05:55:04;52559.28;;;-140.72;100.00
38197;BME280;26543;51.976;4.616;2022-08-21T05:57:29;52532.91;;;-140.72;100.00
38197;BME280;26543;51.976;4.616;2022-08-21T05:59:55;52561.31;;;-140.72;100.00
38197;BME280;26543;51.976;4.616;2022-08-21T06:02:20;52599.88;;;-140.72;100.00
38197;BME280;26543;51.976;4.616;2022-08-21T06:04:46;52563.34;;;-140.72;100.00
38197;BME280;26543;51.976;4.616;2022-08-21T06:07:11;52549.13;;;-140.72;100.00
38197;BME280;26543;51.976;4.616;2022-08-21T06:09:37;52547.09;;;-140.72;100.00
38197;BME280;26543;51.976;4.616;2022-08-21T06:12:08;52520.72;;;-140.72;100.00
38197;BME280;26543;51.976;4.616;2022-08-21T06:14:35;52543.03;;;-140.72;100.00
38197;BME280;26543;51.976;4.616;2022-08-21T06:17:06;52536.97;;;-140.72;100.00
38197;BME280;26543;51.976;4.616;2022-08-21T06:19:32;52534.94;;;-140.72;100.00
38197;BME280;26543;51.976;4.616;2022-08-21T06:21:58;52553.19;;;-140.72;100.00
38197;BME280;26543;51.976;4.616;2022-08-21T06:24:23;52514.63;;;-140.72;100.00
38197;BME280;26543;51.976;4.616;2022-08-21T06:26:49;52559.28;;;-140.72;100.00
38197;BME280;26543;51.976;4.616;2022-08-21T06:29:14;52528.84;;;-140.72;100.00
38197;BME280;26543;51.976;4.616;2022-08-21T06:31:42;52528.84;;;-140.72;100.00
38197;BME280;26543;51.976;4.616;2022-08-21T06:34:11;52543.03;;;-140.72;100.00
38197;BME280;26543;51.976;4.616;2022-08-21T06:36:38;52506.53;;;-140.72;100.00
38197;BME280;26543;51.976;4.616;2022-08-21T06:39:03;52504.50;;;-140.72;100.00
38197;BME280;26543;51.976;4.616;2022-08-21T06:41:28;52512.59;;;-140.72;100.00
38197;BME280;26543;51.976;4.616;2022-08-21T06:43:55;52512.59;;;-140.72;100.00
38197;BME280;26543;51.976;4.616;2022-08-21T06:46:22;52520.72;;;-140.72;100.00
38197;BME280;26543;51.976;4.616;2022-08-21T06:48:47;52520.72;;;-140.72;100.00
38197;BME280;26543;51.976;4.616;2022-08-21T06:51:13;52557.25;;;-140.72;100.00
38197;BME280;26543;51.976;4.616;2022-08-21T06:53:38;52524.78;;;-140.72;100.00
38197;BME280;26543;51.976;4.616;2022-08-21T06:56:03;52524.78;;;-140.72;100.00
38197;BME280;26543;51.976;4.616;2022-08-21T06:58:29;52510.59;;;-140.72;100.00
38197;BME280;26543;51.976;4.616;2022-08-21T07:00:55;52514.63;;;-140.72;100.00
38197;BME280;26543;51.976;4.616;2022-08-21T07:05:51;52526.81;;;-140.72;100.00
38197;BME280;26543;51.976;4.616;2022-08-21T07:08:17;52516.66;;;-140.72;100.00
38197;BME280;26543;51.976;4.616;2022-08-21T07:10:43;52510.59;;;-140.72;100.00
38197;BME280;26543;51.976;4.616;2022-08-21T07:13:09;52486.22;;;-140.72;100.00
38197;BME280;26543;51.976;4.616;2022-08-21T07:15:37;52536.97;;;-140.72;100.00
38197;BME280;26543;51.976;4.616;2022-08-21T07:18:02;52512.59;;;-140.72;100.00
38197;BME280;26543;51.976;4.616;2022-08-21T07:20:29;52504.50;;;-140.72;100.00
38197;BME280;26543;51.976;4.616;2022-08-21T07:22:58;52490.28;;;-140.72;100.00
38197;BME280;26543;51.976;4.616;2022-08-21T07:25:24;52486.22;;;-140.72;100.00
38197;BME280;26543;51.976;4.616;2022-08-21T07:27:50;52504.50;;;-140.72;100.00
38197;BME280;26543;51.976;4.616;2022-08-21T07:30:15;52526.81;;;-140.72;100.00
38197;BME280;26543;51.976;4.616;2022-08-21T07:32:41;52482.16;;;-140.72;100.00
38197;BME280;26543;51.976;4.616;2022-08-21T07:35:06;52459.84;;;-140.72;100.00
38197;BME280;26543;51.976;4.616;2022-08-21T07:37:32;52476.09;;;-140.72;100.00
38197;BME280;26543;51.976;4.616;2022-08-21T07:39:57;52457.81;;;-140.72;100.00
38197;BME280;26543;51.976;4.616;2022-08-21T07:42:23;52431.44;;;-140.72;100.00
38197;BME280;26543;51.976;4.616;2022-08-21T07:44:48;52463.91;;;-140.72;100.00
38197;BME280;26543;51.976;4.616;2022-08-21T07:47:14;52482.16;;;-140.72;100.00
38197;BME280;26543;51.976;4.616;2022-08-21T07:49:39;52435.50;;;-140.72;100.00
38197;BME280;26543;51.976;4.616;2022-08-21T07:52:04;52478.13;;;-140.72;100.00
38197;BME280;26543;51.976;4.616;2022-08-21T07:54:30;52435.50;;;-140.72;100.00
38197;BME280;26543;51.976;4.616;2022-08-21T07:56:55;52463.91;;;-140.72;100.00
38197;BME280;26543;51.976;4.616;2022-08-21T07:59:21;52480.16;;;-140.72;100.00
38197;BME280;26543;51.976;4.616;2022-08-21T08:01:46;52470.00;;;-140.72;100.00
38197;BME280;26543;51.976;4.616;2022-08-21T08:04:11;52461.88;;;-140.72;100.00
38197;BME280;26543;51.976;4.616;2022-08-21T08:06:37;52433.47;;;-140.72;100.00
38197;BME280;26543;51.976;4.616;2022-08-21T08:09:03;52423.31;;;-140.72;100.00
38197;BME280;26543;51.976;4.616;2022-08-21T08:11:29;52407.09;;;-140.72;100.00
38197;BME280;26543;51.976;4.616;2022-08-21T08:13:57;52394.91;;;-140.72;100.00
38197;BME280;26543;51.976;4.616;2022-08-21T08:16:25;52459.84;;;-140.72;100.00
38197;BME280;26543;51.976;4.616;2022-08-21T08:18:51;52411.16;;;-140.72;100.00
38197;BME280;26543;51.976;4.616;2022-08-21T08:21:16;52370.56;;;-140.72;100.00
38197;BME280;26543;51.976;4.616;2022-08-21T08:23:44;52386.81;;;-140.72;100.00
38197;BME280;26543;51.976;4.616;2022-08-21T08:26:10;52390.84;;;-140.72;100.00
38197;BME280;26543;51.976;4.616;2022-08-21T08:28:36;52398.97;;;-140.72;100.00
38197;BME280;26543;51.976;4.616;2022-08-21T08:31:01;52364.47;;;-140.72;100.00
38197;BME280;26543;51.976;4.616;2022-08-21T08:33:27;52356.38;;;-140.72;100.00
38197;BME280;26543;51.976;4.616;2022-08-21T08:35:55;52386.81;;;-140.72;100.00
38197;BME280;26543;51.976;4.616;2022-08-21T08:38:23;52340.13;;;-140.72;100.00
38197;BME280;26543;51.976;4.616;2022-08-21T08:41:01;52368.53;;;-140.72;100.00
38197;BME280;26543;51.976;4.616;2022-08-21T08:43:29;52323.91;;;-140.72;100.00
38197;BME280;26543;51.976;4.616;2022-08-21T08:45:58;52317.81;;;-140.72;100.00
38197;BME280;26543;51.976;4.616;2022-08-21T08:48:44;52297.53;;;-140.72;100.00
38197;BME280;26543;51.976;4.616;2022-08-21T08:51:26;52309.69;;;-140.72;100.00
38197;BME280;26543;51.976;4.616;2022-08-21T08:54:02;52289.41;;;-140.72;100.00
38197;BME280;26543;51.976;4.616;2022-08-21T08:56:33;52293.47;;;-140.72;100.00
38197;BME280;26543;51.976;4.616;2022-08-21T08:59:08;52287.38;;;-140.72;100.00
38197;BME280;26543;51.976;4.616;2022-08-21T09:01:36;52258.97;;;-140.72;100.00
38197;BME280;26543;51.976;4.616;2022-08-21T09:04:02;52254.91;;;-140.72;100.00
38197;BME280;26543;51.976;4.616;2022-08-21T09:09:51;52230.56;;;-140.72;100.00
38197;BME280;26543;51.976;4.616;2022-08-21T09:15:01;52236.66;;;-140.72;100.00
38197;BME280;26543;51.976;4.616;2022-08-21T09:17:44;52175.78;;;-140.72;100.00
38197;BME280;26543;51.976;4.616;2022-08-21T09:25:32;52192.00;;;-140.72;0.00
38197;BME280;26543;51.976;4.616;2022-08-21T09:27:59;52139.25;;;-140.72;0.00
38197;BME280;26543;51.976;4.616;2022-08-21T09:30:29;52147.38;;;-140.72;0.00
38197;BME280;26543;51.976;4.616;2022-08-21T09:32:55;52246.78;;;-140.72;0.00
38197;BME280;26543;51.976;4.616;2022-08-21T09:35:21;52236.66;;;-140.72;0.00
38197;BME280;26543;51.976;4.616;2022-08-21T09:37:56;52173.75;;;-140.72;0.00
38197;BME280;26543;51.976;4.616;2022-08-21T09:40:40;52127.09;;;-140.72;0.00
38197;BME280;26543;51.976;4.616;2022-08-21T09:43:17;52102.75;;;-140.72;0.00
38197;BME280;26543;51.976;4.616;2022-08-21T09:45:44;52062.16;;;-140.72;0.00
38197;BME280;26543;51.976;4.616;2022-08-21T09:48:22;52074.34;;;-140.72;0.00
38197;BME280;26543;51.976;4.616;2022-08-21T09:50:48;52058.09;;;-140.72;0.00
38197;BME280;26543;51.976;4.616;2022-08-21T09:53:21;52021.56;;;-140.72;0.00
38197;BME280;26543;51.976;4.616;2022-08-21T09:55:49;52021.56;;;-140.72;0.00
38197;BME280;26543;51.976;4.616;2022-08-21T09:58:36;52027.66;;;-140.72;0.00
38197;BME280;26543;51.976;4.616;2022-08-21T10:01:11;52094.63;;;-140.72;0.00
38197;BME280;26543;51.976;4.616;2022-08-21T10:03:38;52147.38;;;-140.72;0.00
38197;BME280;26543;51.976;4.616;2022-08-21T10:06:06;52194.03;;;-140.72;0.00
38197;BME280;26543;51.976;4.616;2022-08-21T10:08:35;52232.59;;;-140.72;0.00
38197;BME280;26543;51.976;4.616;2022-08-21T10:11:08;52204.19;;;-140.72;0.00
38197;BME280;26543;51.976;4.616;2022-08-21T10:14:03;52271.16;;;-140.72;0.00
38197;BME280;26543;51.976;4.616;2022-08-21T10:16:40;52244.78;;;-140.72;0.00
38197;BME280;26543;51.976;4.616;2022-08-21T10:22:00;52330.00;;;-140.72;0.00
38197;BME280;26543;51.976;4.616;2022-08-21T10:24:58;52303.59;;;-140.72;0.00
38197;BME280;26543;51.976;4.616;2022-08-21T10:30:13;52313.75;;;-140.72;0.00
38197;BME280;26543;51.976;4.616;2022-08-21T10:32:57;52336.06;;;-140.72;0.00
38197;BME280;26543;51.976;4.616;2022-08-21T10:35:29;52330.00;;;-140.72;0.00
38197;BME280;26543;51.976;4.616;2022-08-21T10:41:05;52311.72;;;-140.72;0.00
38197;BME280;26543;51.976;4.616;2022-08-21T10:46:16;52183.91;;;-140.72;0.00
38197;BME280;26543;51.976;4.616;2022-08-21T10:48:54;52157.53;;;-140.72;0.00
38197;BME280;26543;51.976;4.616;2022-08-21T10:56:54;52206.22;;;-140.72;0.00
38197;BME280;26543;51.976;4.616;2022-08-21T10:59:33;52267.09;;;-140.72;0.00
38197;BME280;26543;51.976;4.616;2022-08-21T11:02:13;52273.19;;;-140.72;0.00
38197;BME280;26543;51.976;4.616;2022-08-21T11:04:55;52127.09;;;-140.72;0.00
38197;BME280;26543;51.976;4.616;2022-08-21T11:07:29;52143.31;;;-140.72;0.00
38197;BME280;26543;51.976;4.616;2022-08-21T11:09:58;52169.69;;;-140.72;0.00
38197;BME280;26543;51.976;4.616;2022-08-21T11:12:35;52212.31;;;-140.72;0.00
38197;BME280;26543;51.976;4.616;2022-08-21T11:17:47;52005.34;;;-140.72;0.00
38197;BME280;26543;51.976;4.616;2022-08-21T11:20:33;52041.88;;;-140.72;0.00
38197;BME280;26543;51.976;4.616;2022-08-21T11:23:11;52110.84;;;-140.72;0.00
38197;BME280;26543;51.976;4.616;2022-08-21T11:26:17;52163.59;;;-140.72;0.00
38197;BME280;26543;51.976;4.616;2022-08-21T11:28:51;52232.59;;;-140.72;0.00
38197;BME280;26543;51.976;4.616;2022-08-21T11:31:32;52230.56;;;-140.72;0.00
38197;BME280;26543;51.976;4.616;2022-08-21T11:39:22;52281.28;;;-140.72;0.00
38197;BME280;26543;51.976;4.616;2022-08-21T11:50:17;52338.09;;;-140.72;0.00
38197;BME280;26543;51.976;4.616;2022-08-21T11:52:48;52317.81;;;-140.72;0.00
38197;BME280;26543;51.976;4.616;2022-08-21T12:00:56;52198.09;;;-140.72;0.00
38197;BME280;26543;51.976;4.616;2022-08-21T12:03:35;52232.59;;;-140.72;0.00
38197;BME280;26543;51.976;4.616;2022-08-21T12:06:06;52218.38;;;-140.72;0.00
38197;BME280;26543;51.976;4.616;2022-08-21T12:08:40;52070.28;;;-140.72;0.00
38197;BME280;26543;51.976;4.616;2022-08-21T12:13:51;51981.00;;;-140.72;0.00
38197;BME280;26543;51.976;4.616;2022-08-21T12:16:35;51976.94;;;-140.72;0.00
38197;BME280;26543;51.976;4.616;2022-08-21T12:26:57;51960.72;;;-140.72;0.00
38197;BME280;26543;51.976;4.616;2022-08-21T12:29:27;51895.78;;;-140.72;0.00
38197;BME280;26543;51.976;4.616;2022-08-21T12:31:56;51938.41;;;-140.72;0.00
38197;BME280;26543;51.976;4.616;2022-08-21T12:34:34;51841.00;;;-140.72;0.00
38197;BME280;26543;51.976;4.616;2022-08-21T12:40:03;51956.66;;;-140.72;0.00
38197;BME280;26543;51.976;4.616;2022-08-21T12:42:48;51989.13;;;-140.72;0.00
38197;BME280;26543;51.976;4.616;2022-08-21T12:45:42;51952.59;;;-140.72;0.00
38197;BME280;26543;51.976;4.616;2022-08-21T12:48:26;51893.75;;;-140.72;0.00
38197;BME280;26543;51.976;4.616;2022-08-21T12:50:55;51863.31;;;-140.72;0.00
38197;BME280;26543;51.976;4.616;2022-08-21T12:56:18;51794.34;;;-140.72;0.00
38197;BME280;26543;51.976;4.616;2022-08-21T12:59:22;51983.03;;;-140.72;0.00
38197;BME280;26543;51.976;4.616;2022-08-21T13:01:46;52058.09;;;-140.72;0.00
38197;BME280;26543;51.976;4.616;2022-08-21T13:04:17;51989.13;;;-140.72;0.00
38197;BME280;26543;51.976;4.616;2022-08-21T13:06:47;52007.38;;;-140.72;0.00
38197;BME280;26543;51.976;4.616;2022-08-21T13:09:17;52062.16;;;-140.72;0.00
38197;BME280;26543;51.976;4.616;2022-08-21T13:11:45;52116.94;;;-140.72;0.00
38197;BME280;26543;51.976;4.616;2022-08-21T13:14:24;52015.50;;;-140.72;0.00
38197;BME280;26543;51.976;4.616;2022-08-21T13:16:57;52023.59;;;-140.72;0.00
38197;BME280;26543;51.976;4.616;2022-08-21T13:19:23;52056.06;;;-140.72;0.00
38197;BME280;26543;51.976;4.616;2022-08-21T13:21:49;52145.34;;;-140.72;0.00
38197;BME280;26543;51.976;4.616;2022-08-21T13:26:44;52171.72;;;-140.72;0.00
38197;BME280;26543;51.976;4.616;2022-08-21T13:29:12;52177.81;;;-140.72;0.00
38197;BME280;26543;51.976;4.616;2022-08-21T13:31:39;52127.09;;;-140.72;0.00
38197;BME280;26543;51.976;4.616;2022-08-21T13:34:06;52090.56;;;-140.72;0.00
38197;BME280;26543;51.976;4.616;2022-08-21T13:36:35;52173.75;;;-140.72;0.00
38197;BME280;26543;51.976;4.616;2022-08-21T13:39:07;52208.25;;;-140.72;0.00
38197;BME280;26543;51.976;4.616;2022-08-21T13:41:35;52189.97;;;-140.72;0.00
38197;BME280;26543;51.976;4.616;2022-08-21T13:44:05;52171.72;;;-140.72;0.00
38197;BME280;26543;51.976;4.616;2022-08-21T13:46:34;52202.16;;;-140.72;0.00
38197;BME280;26543;51.976;4.616;2022-08-21T13:49:01;52208.25;;;-140.72;0.00
38197;BME280;26543;51.976;4.616;2022-08-21T13:51:28;52173.75;;;-140.72;0.00
38197;BME280;26543;51.976;4.616;2022-08-21T13:53:54;52161.56;;;-140.72;0.00
38197;BME280;26543;51.976;4.616;2022-08-21T13:56:30;52208.25;;;-140.72;0.00
38197;BME280;26543;51.976;4.616;2022-08-21T13:58:57;52248.81;;;-140.72;0.00